sensor_id;sensor_type;location;lat;lon;timestamp;temperature;humidity
10282;DHT22;5186;59.472;18.048;2023-01-20T00:00:08;-3.20;99.90
10282;DHT22;5186;59.472;18.048;2023-01-20T00:02:35;-3.30;99.90
10282;DHT22;5186;59.472;18.048;2023-01-20T00:05:01;-3.20;99.90
10282;DHT22;5186;59.472;18.048;2023-01-20T00:07:26;-3.30;99.90
10282;DHT22;5186;59.472;18.048;2023-01-20T00:09:52;-3.30;99.90
10282;DHT22;5186;59.472;18.048;2023-01-20T00:12:18;-3.30;99.90
10282;DHT22;5186;59.472;18.048;2023-01-20T00:14:43;-3.30;99.90
10282;DHT22;5186;59.472;18.048;2023-01-20T00:17:09;-3.30;99.90
10282;DHT22;5186;59.472;18.048;2023-01-20T00:19:34;-3.30;99.90
10282;DHT22;5186;59.472;18.048;2023-01-20T00:22:00;-3.30;99.90
10282;DHT22;5186;59.472;18.048;2023-01-20T00:24:25;-3.30;99.90
10282;DHT22;5186;59.472;18.048;2023-01-20T00:26:51;-3.30;99.90
10282;DHT22;5186;59.472;18.048;2023-01-20T00:29:16;-3.30;99.90
10282;DHT22;5186;59.472;18.048;2023-01-20T00:31:42;-3.30;99.90
10282;DHT22;5186;59.472;18.048;2023-01-20T00:34:09;-3.30;99.90
10282;DHT22;5186;59.472;18.048;2023-01-20T00:36:34;-3.30;99.90
10282;DHT22;5186;59.472;18.048;2023-01-20T00:39:01;-3.40;99.90
10282;DHT22;5186;59.472;18.048;2023-01-20T00:41:30;-3.30;99.90
10282;DHT22;5186;59.472;18.048;2023-01-20T00:43:55;-3.30;99.90
10282;DHT22;5186;59.472;18.048;2023-01-20T00:46:21;-3.40;99.90
10282;DHT22;5186;59.472;18.048;2023-01-20T00:48:47;-3.40;99.90
10282;DHT22;5186;59.472;18.048;2023-01-20T00:51:13;-3.40;99.90
10282;DHT22;5186;59.472;18.048;2023-01-20T00:53:39;-3.40;99.90
10282;DHT22;5186;59.472;18.048;2023-01-20T00:56:05;-3.40;99.90
10282;DHT22;5186;59.472;18.048;2023-01-20T00:58:31;-3.30;99.90
10282;DHT22;5186;59.472;18.048;2023-01-20T01:00:57;-3.40;99.90
10282;DHT22;5186;59.472;18.048;2023-01-20T01:03:23;-3.40;99.90
10282;DHT22;5186;59.472;18.048;2023-01-20T01:05:49;-3.40;99.90
10282;DHT22;5186;59.472;18.048;2023-01-20T01:08:14;-3.50;99.90
10282;DHT22;5186;59.472;18.048;2023-01-20T01:10:40;-3.50;99.90
10282;DHT22;5186;59.472;18.048;2023-01-20T01:13:06;-3.50;99.90
10282;DHT22;5186;59.472;18.048;2023-01-20T01:15:32;-3.50;99.90
10282;DHT22;5186;59.472;18.048;2023-01-20T01:17:58;-3.50;99.90
10282;DHT22;5186;59.472;18.048;2023-01-20T01:20:25;-3.60;99.90
10282;DHT22;5186;59.472;18.048;2023-01-20T01:22:51;-3.50;99.90
10282;DHT22;5186;59.472;18.048;2023-01-20T01:25:16;-3.60;99.90
10282;DHT22;5186;59.472;18.048;2023-01-20T01:27:42;-3.60;99.90
10282;DHT22;5186;59.472;18.048;2023-01-20T01:30:08;-3.60;99.90
10282;DHT22;5186;59.472;18.048;2023-01-20T01:32:34;-3.60;99.90
10282;DHT22;5186;59.472;18.048;2023-01-20T01:34:59;-3.70;99.90
10282;DHT22;5186;59.472;18.048;2023-01-20T01:37:26;-3.70;99.90
10282;DHT22;5186;59.472;18.048;2023-01-20T01:39:52;-3.70;99.90
10282;DHT22;5186;59.472;18.048;2023-01-20T01:42:22;-3.70;99.90
10282;DHT22;5186;59.472;18.048;2023-01-20T01:47:49;-3.80;99.90
10282;DHT22;5186;59.472;18.048;2023-01-20T01:50:20;-3.70;99.90
10282;DHT22;5186;59.472;18.048;2023-01-20T01:52:49;-3.70;99.90
10282;DHT22;5186;59.472;18.048;2023-01-20T01:55:18;-3.80;99.90
10282;DHT22;5186;59.472;18.048;2023-01-20T01:57:46;-3.80;99.90
10282;DHT22;5186;59.472;18.048;2023-01-20T02:00:12;-3.80;99.90
10282;DHT22;5186;59.472;18.048;2023-01-20T02:02:38;-3.80;99.90
10282;DHT22;5186;59.472;18.048;2023-01-20T02:05:04;-3.80;99.90
10282;DHT22;5186;59.472;18.048;2023-01-20T02:07:31;-3.80;99.90
10282;DHT22;5186;59.472;18.048;2023-01-20T02:09:58;-3.80;99.90
10282;DHT22;5186;59.472;18.048;2023-01-20T02:12:24;-3.80;99.90
10282;DHT22;5186;59.472;18.048;2023-01-20T02:14:53;-3.90;99.90
10282;DHT22;5186;59.472;18.048;2023-01-20T02:36:55;-3.90;99.90
10282;DHT22;5186;59.472;18.048;2023-01-20T02:42:07;-3.90;99.90
10282;DHT22;5186;59.472;18.048;2023-01-20T02:44:56;-4.00;99.90
10282;DHT22;5186;59.472;18.048;2023-01-20T02:52:39;-3.90;99.90
10282;DHT22;5186;59.472;18.048;2023-01-20T02:55:09;-4.00;99.90
10282;DHT22;5186;59.472;18.048;2023-01-20T02:57:53;-4.00;99.90
10282;DHT22;5186;59.472;18.048;2023-01-20T03:00:26;-4.00;99.90
10282;DHT22;5186;59.472;18.048;2023-01-20T03:02:55;-4.00;99.90
10282;DHT22;5186;59.472;18.048;2023-01-20T03:05:26;-4.00;99.90
10282;DHT22;5186;59.472;18.048;2023-01-20T03:07:54;-4.00;99.90
10282;DHT22;5186;59.472;18.048;2023-01-20T03:10:23;-4.00;99.90
10282;DHT22;5186;59.472;18.048;2023-01-20T03:12:59;-4.00;99.90
10282;DHT22;5186;59.472;18.048;2023-01-20T03:15:36;-4.00;99.90
10282;DHT22;5186;59.472;18.048;2023-01-20T03:18:06;-4.00;99.90
10282;DHT22;5186;59.472;18.048;2023-01-20T03:20:31;-4.00;99.90
10282;DHT22;5186;59.472;18.048;2023-01-20T03:22:57;-4.00;99.90
10282;DHT22;5186;59.472;18.048;2023-01-20T03:25:23;-4.00;99.90
10282;DHT22;5186;59.472;18.048;2023-01-20T03:27:49;-4.00;99.90
10282;DHT22;5186;59.472;18.048;2023-01-20T03:30:15;-4.00;99.90
10282;DHT22;5186;59.472;18.048;2023-01-20T03:32:43;-4.00;99.90
10282;DHT22;5186;59.472;18.048;2023-01-20T03:35:12;-4.10;99.90
10282;DHT22;5186;59.472;18.048;2023-01-20T03:37:37;-4.10;99.90
10282;DHT22;5186;59.472;18.048;2023-01-20T03:40:04;-4.10;99.90
10282;DHT22;5186;59.472;18.048;2023-01-20T03:42:44;-4.10;99.90
10282;DHT22;5186;59.472;18.048;2023-01-20T03:45:23;-4.10;99.90
10282;DHT22;5186;59.472;18.048;2023-01-20T03:48:05;-4.10;99.90
10282;DHT22;5186;59.472;18.048;2023-01-20T03:50:38;-4.10;99.90
10282;DHT22;5186;59.472;18.048;2023-01-20T03:55:48;-4.10;99.90
10282;DHT22;5186;59.472;18.048;2023-01-20T03:58:22;-4.10;99.90
10282;DHT22;5186;59.472;18.048;2023-01-20T04:00:49;-4.10;99.90
10282;DHT22;5186;59.472;18.048;2023-01-20T04:03:21;-4.10;99.90
10282;DHT22;5186;59.472;18.048;2023-01-20T04:06:05;-4.20;99.90
10282;DHT22;5186;59.472;18.048;2023-01-20T04:08:35;-4.10;99.90
10282;DHT22;5186;59.472;18.048;2023-01-20T04:11:04;-4.10;99.90
10282;DHT22;5186;59.472;18.048;2023-01-20T04:13:31;-4.20;99.90
10282;DHT22;5186;59.472;18.048;2023-01-20T04:15:58;-4.20;99.90
10282;DHT22;5186;59.472;18.048;2023-01-20T04:18:24;-4.10;99.90
10282;DHT22;5186;59.472;18.048;2023-01-20T04:20:56;-4.20;99.90
10282;DHT22;5186;59.472;18.048;2023-01-20T04:23:39;-4.10;99.90
10282;DHT22;5186;59.472;18.048;2023-01-20T04:26:06;-4.20;99.90
10282;DHT22;5186;59.472;18.048;2023-01-20T04:28:32;-4.10;99.90
10282;DHT22;5186;59.472;18.048;2023-01-20T04:30:57;-4.10;99.90
10282;DHT22;5186;59.472;18.048;2023-01-20T04:33:23;-4.10;99.90
10282;DHT22;5186;59.472;18.048;2023-01-20T04:35:48;-4.20;99.90
10282;DHT22;5186;59.472;18.048;2023-01-20T04:38:14;-4.20;99.90
10282;DHT22;5186;59.472;18.048;2023-01-20T04:40:40;-4.20;99.90
10282;DHT22;5186;59.472;18.048;2023-01-20T04:43:05;-4.20;99.90
10282;DHT22;5186;59.472;18.048;2023-01-20T04:45:31;-4.20;99.90
10282;DHT22;5186;59.472;18.048;2023-01-20T04:47:56;-4.20;99.90
10282;DHT22;5186;59.472;18.048;2023-01-20T04:50:22;-4.20;99.90
10282;DHT22;5186;59.472;18.048;2023-01-20T04:52:48;-4.20;99.90
10282;DHT22;5186;59.472;18.048;2023-01-20T04:55:13;-4.10;99.90
10282;DHT22;5186;59.472;18.048;2023-01-20T04:57:39;-4.10;99.90
10282;DHT22;5186;59.472;18.048;2023-01-20T05:00:05;-4.10;99.90
10282;DHT22;5186;59.472;18.048;2023-01-20T05:02:31;-4.10;99.90
10282;DHT22;5186;59.472;18.048;2023-01-20T05:04:57;-4.10;99.90
10282;DHT22;5186;59.472;18.048;2023-01-20T05:07:22;-4.10;99.90
10282;DHT22;5186;59.472;18.048;2023-01-20T05:09:48;-4.10;99.90
10282;DHT22;5186;59.472;18.048;2023-01-20T05:12:14;-4.00;99.90
10282;DHT22;5186;59.472;18.048;2023-01-20T05:14:39;-4.00;99.90
10282;DHT22;5186;59.472;18.048;2023-01-20T05:17:05;-4.00;99.90
10282;DHT22;5186;59.472;18.048;2023-01-20T05:19:30;-4.00;99.90
10282;DHT22;5186;59.472;18.048;2023-01-20T05:21:57;-4.00;99.90
10282;DHT22;5186;59.472;18.048;2023-01-20T05:24:23;-4.00;99.90
10282;DHT22;5186;59.472;18.048;2023-01-20T05:26:49;-4.00;99.90
10282;DHT22;5186;59.472;18.048;2023-01-20T05:29:14;-4.00;99.90
10282;DHT22;5186;59.472;18.048;2023-01-20T05:31:40;-3.90;99.90
10282;DHT22;5186;59.472;18.048;2023-01-20T05:34:08;-3.90;99.90
10282;DHT22;5186;59.472;18.048;2023-01-20T05:36:34;-3.90;99.90
10282;DHT22;5186;59.472;18.048;2023-01-20T05:38:59;-3.80;99.90
10282;DHT22;5186;59.472;18.048;2023-01-20T05:41:25;-3.80;99.90
10282;DHT22;5186;59.472;18.048;2023-01-20T05:43:53;-3.80;99.90
10282;DHT22;5186;59.472;18.048;2023-01-20T05:46:19;-3.70;99.90
10282;DHT22;5186;59.472;18.048;2023-01-20T05:48:45;-3.70;99.90
10282;DHT22;5186;59.472;18.048;2023-01-20T05:51:11;-3.70;99.90
10282;DHT22;5186;59.472;18.048;2023-01-20T05:53:36;-3.70;99.90
10282;DHT22;5186;59.472;18.048;2023-01-20T05:56:03;-3.70;99.90
10282;DHT22;5186;59.472;18.048;2023-01-20T05:58:30;-3.70;99.90
10282;DHT22;5186;59.472;18.048;2023-01-20T06:01:06;-3.70;99.90
10282;DHT22;5186;59.472;18.048;2023-01-20T06:03:32;-3.70;99.90
10282;DHT22;5186;59.472;18.048;2023-01-20T06:06:02;-3.70;99.90
10282;DHT22;5186;59.472;18.048;2023-01-20T06:08:28;-3.60;99.90
10282;DHT22;5186;59.472;18.048;2023-01-20T06:10:54;-3.60;99.90
10282;DHT22;5186;59.472;18.048;2023-01-20T06:13:20;-3.60;99.90
10282;DHT22;5186;59.472;18.048;2023-01-20T06:15:50;-3.60;99.90
10282;DHT22;5186;59.472;18.048;2023-01-20T06:18:16;-3.60;99.90
10282;DHT22;5186;59.472;18.048;2023-01-20T06:20:42;-3.60;99.90
10282;DHT22;5186;59.472;18.048;2023-01-20T06:23:07;-3.60;99.90
10282;DHT22;5186;59.472;18.048;2023-01-20T06:25:33;-3.60;99.90
10282;DHT22;5186;59.472;18.048;2023-01-20T06:27:59;-3.50;99.90
10282;DHT22;5186;59.472;18.048;2023-01-20T06:30:24;-3.50;99.90
10282;DHT22;5186;59.472;18.048;2023-01-20T06:32:50;-3.50;99.90
10282;DHT22;5186;59.472;18.048;2023-01-20T06:35:16;-3.50;99.90
10282;DHT22;5186;59.472;18.048;2023-01-20T06:37:41;-3.50;99.90
10282;DHT22;5186;59.472;18.048;2023-01-20T06:40:07;-3.50;99.90
10282;DHT22;5186;59.472;18.048;2023-01-20T06:42:33;-3.40;99.90
10282;DHT22;5186;59.472;18.048;2023-01-20T06:44:59;-3.30;99.90
10282;DHT22;5186;59.472;18.048;2023-01-20T06:47:24;-3.20;99.90
10282;DHT22;5186;59.472;18.048;2023-01-20T06:49:50;-3.20;99.90
10282;DHT22;5186;59.472;18.048;2023-01-20T06:52:15;-3.20;99.90
10282;DHT22;5186;59.472;18.048;2023-01-20T06:54:41;-3.10;99.90
10282;DHT22;5186;59.472;18.048;2023-01-20T06:57:06;-3.10;99.90
10282;DHT22;5186;59.472;18.048;2023-01-20T06:59:32;-3.00;99.90
10282;DHT22;5186;59.472;18.048;2023-01-20T07:01:57;-3.00;99.90
10282;DHT22;5186;59.472;18.048;2023-01-20T07:04:23;-3.00;99.90
10282;DHT22;5186;59.472;18.048;2023-01-20T07:06:49;-2.90;99.90
10282;DHT22;5186;59.472;18.048;2023-01-20T07:09:14;-2.90;99.90
10282;DHT22;5186;59.472;18.048;2023-01-20T07:11:40;-2.90;99.90
10282;DHT22;5186;59.472;18.048;2023-01-20T07:14:06;-2.80;99.90
10282;DHT22;5186;59.472;18.048;2023-01-20T07:16:32;-2.80;99.90
10282;DHT22;5186;59.472;18.048;2023-01-20T07:18:58;-2.70;99.90
10282;DHT22;5186;59.472;18.048;2023-01-20T07:21:24;-2.70;99.90
10282;DHT22;5186;59.472;18.048;2023-01-20T07:23:49;-2.70;99.90
10282;DHT22;5186;59.472;18.048;2023-01-20T07:26:22;-2.70;99.90
10282;DHT22;5186;59.472;18.048;2023-01-20T07:28:51;-2.60;99.90
10282;DHT22;5186;59.472;18.048;2023-01-20T07:31:22;-2.60;99.90
10282;DHT22;5186;59.472;18.048;2023-01-20T07:33:48;-2.60;99.90
10282;DHT22;5186;59.472;18.048;2023-01-20T07:36:15;-2.50;99.90
10282;DHT22;5186;59.472;18.048;2023-01-20T07:38:41;-2.50;99.90
10282;DHT22;5186;59.472;18.048;2023-01-20T07:41:09;-2.50;99.90
10282;DHT22;5186;59.472;18.048;2023-01-20T07:43:40;-2.40;99.90
10282;DHT22;5186;59.472;18.048;2023-01-20T07:46:05;-2.40;99.90
10282;DHT22;5186;59.472;18.048;2023-01-20T07:48:32;-2.30;99.90
10282;DHT22;5186;59.472;18.048;2023-01-20T07:50:59;-2.30;99.90
10282;DHT22;5186;59.472;18.048;2023-01-20T07:53:37;-2.20;99.90
10282;DHT22;5186;59.472;18.048;2023-01-20T07:56:06;-2.20;99.90
10282;DHT22;5186;59.472;18.048;2023-01-20T07:58:32;-2.10;99.90
10282;DHT22;5186;59.472;18.048;2023-01-20T08:01:28;-2.10;99.90
10282;DHT22;5186;59.472;18.048;2023-01-20T08:03:54;-2.00;99.90
10282;DHT22;5186;59.472;18.048;2023-01-20T08:06:22;-2.00;99.90
10282;DHT22;5186;59.472;18.048;2023-01-20T08:08:48;-1.90;99.90
10282;DHT22;5186;59.472;18.048;2023-01-20T08:11:16;-1.90;99.90
10282;DHT22;5186;59.472;18.048;2023-01-20T08:13:42;-1.80;99.90
10282;DHT22;5186;59.472;18.048;2023-01-20T08:16:10;-1.80;99.90
10282;DHT22;5186;59.472;18.048;2023-01-20T08:18:37;-1.70;99.90
10282;DHT22;5186;59.472;18.048;2023-01-20T08:21:04;-1.70;99.90
10282;DHT22;5186;59.472;18.048;2023-01-20T08:23:36;-1.60;99.90
10282;DHT22;5186;59.472;18.048;2023-01-20T08:26:04;-1.60;99.90
10282;DHT22;5186;59.472;18.048;2023-01-20T08:28:31;-1.50;99.90
10282;DHT22;5186;59.472;18.048;2023-01-20T08:31:12;-1.50;99.90
10282;DHT22;5186;59.472;18.048;2023-01-20T08:33:38;-1.40;99.90
10282;DHT22;5186;59.472;18.048;2023-01-20T08:36:10;-1.40;99.90
10282;DHT22;5186;59.472;18.048;2023-01-20T08:38:36;-1.40;99.90
10282;DHT22;5186;59.472;18.048;2023-01-20T08:41:06;-1.30;99.90
10282;DHT22;5186;59.472;18.048;2023-01-20T08:43:32;-1.30;99.90
10282;DHT22;5186;59.472;18.048;2023-01-20T08:45:59;-1.30;99.90
10282;DHT22;5186;59.472;18.048;2023-01-20T08:48:25;-1.30;99.90
10282;DHT22;5186;59.472;18.048;2023-01-20T08:50:51;-1.30;99.90
10282;DHT22;5186;59.472;18.048;2023-01-20T08:53:16;-1.30;99.90
10282;DHT22;5186;59.472;18.048;2023-01-20T08:55:42;-1.30;99.90
10282;DHT22;5186;59.472;18.048;2023-01-20T08:58:07;-1.20;99.90
10282;DHT22;5186;59.472;18.048;2023-01-20T09:00:33;-1.20;99.90
10282;DHT22;5186;59.472;18.048;2023-01-20T09:03:00;-1.20;99.90
10282;DHT22;5186;59.472;18.048;2023-01-20T09:05:25;-1.20;99.90
10282;DHT22;5186;59.472;18.048;2023-01-20T09:07:51;-1.20;99.90
10282;DHT22;5186;59.472;18.048;2023-01-20T09:10:17;-1.20;99.90
10282;DHT22;5186;59.472;18.048;2023-01-20T09:12:43;-1.20;99.90
10282;DHT22;5186;59.472;18.048;2023-01-20T09:15:10;-1.10;99.90
10282;DHT22;5186;59.472;18.048;2023-01-20T09:17:36;-1.10;99.90
10282;DHT22;5186;59.472;18.048;2023-01-20T09:20:02;-1.10;99.90
10282;DHT22;5186;59.472;18.048;2023-01-20T09:22:27;-1.10;99.90
10282;DHT22;5186;59.472;18.048;2023-01-20T09:24:53;-1.10;99.90
10282;DHT22;5186;59.472;18.048;2023-01-20T09:27:19;-1.00;99.90
10282;DHT22;5186;59.472;18.048;2023-01-20T09:29:44;-1.00;99.90
10282;DHT22;5186;59.472;18.048;2023-01-20T09:32:12;-0.90;99.90
10282;DHT22;5186;59.472;18.048;2023-01-20T09:34:37;-0.90;99.90
10282;DHT22;5186;59.472;18.048;2023-01-20T09:37:03;-0.80;99.90
10282;DHT22;5186;59.472;18.048;2023-01-20T09:39:48;-0.70;99.90
10282;DHT22;5186;59.472;18.048;2023-01-20T09:42:43;-0.70;99.90
10282;DHT22;5186;59.472;18.048;2023-01-20T09:45:39;-0.60;99.90
10282;DHT22;5186;59.472;18.048;2023-01-20T09:48:12;-0.60;99.90
10282;DHT22;5186;59.472;18.048;2023-01-20T09:51:02;-0.50;99.90
10282;DHT22;5186;59.472;18.048;2023-01-20T09:54:09;-0.40;99.90
10282;DHT22;5186;59.472;18.048;2023-01-20T09:56:40;-0.40;99.90
10282;DHT22;5186;59.472;18.048;2023-01-20T09:59:21;-0.30;99.90
10282;DHT22;5186;59.472;18.048;2023-01-20T10:01:56;-0.20;99.90
10282;DHT22;5186;59.472;18.048;2023-01-20T10:04:34;-0.20;99.90
10282;DHT22;5186;59.472;18.048;2023-01-20T10:07:13;-0.10;99.90
10282;DHT22;5186;59.472;18.048;2023-01-20T10:09:53;0.00;99.90
10282;DHT22;5186;59.472;18.048;2023-01-20T10:12:33;0.10;99.90
10282;DHT22;5186;59.472;18.048;2023-01-20T10:15:06;0.20;99.90
10282;DHT22;5186;59.472;18.048;2023-01-20T10:17:41;0.20;99.90
10282;DHT22;5186;59.472;18.048;2023-01-20T10:20:21;0.30;99.90
10282;DHT22;5186;59.472;18.048;2023-01-20T10:23:08;0.40;99.90
10282;DHT22;5186;59.472;18.048;2023-01-20T10:25:55;0.40;99.90
10282;DHT22;5186;59.472;18.048;2023-01-20T10:28:28;0.50;99.90
10282;DHT22;5186;59.472;18.048;2023-01-20T10:31:00;0.60;99.90
10282;DHT22;5186;59.472;18.048;2023-01-20T10:35:58;0.70;99.90
10282;DHT22;5186;59.472;18.048;2023-01-20T10:38:48;0.70;99.90
10282;DHT22;5186;59.472;18.048;2023-01-20T10:41:27;0.80;99.90
10282;DHT22;5186;59.472;18.048;2023-01-20T10:43:57;0.90;99.90
10282;DHT22;5186;59.472;18.048;2023-01-20T10:49:18;1.00;99.90
10282;DHT22;5186;59.472;18.048;2023-01-20T10:57:25;1.20;99.90
10282;DHT22;5186;59.472;18.048;2023-01-20T10:59:58;1.20;99.90
10282;DHT22;5186;59.472;18.048;2023-01-20T11:02:28;1.30;99.90
10282;DHT22;5186;59.472;18.048;2023-01-20T11:05:02;1.30;99.90
10282;DHT22;5186;59.472;18.048;2023-01-20T11:07:34;1.40;99.90
10282;DHT22;5186;59.472;18.048;2023-01-20T11:10:13;1.40;99.90
10282;DHT22;5186;59.472;18.048;2023-01-20T11:12:41;1.40;99.90
10282;DHT22;5186;59.472;18.048;2023-01-20T11:15:19;1.50;99.90
10282;DHT22;5186;59.472;18.048;2023-01-20T11:17:45;1.50;99.90
10282;DHT22;5186;59.472;18.048;2023-01-20T11:20:19;1.60;99.90
10282;DHT22;5186;59.472;18.048;2023-01-20T11:22:47;1.60;99.90
10282;DHT22;5186;59.472;18.048;2023-01-20T11:25:23;1.60;99.90
10282;DHT22;5186;59.472;18.048;2023-01-20T11:27:49;1.70;99.90
10282;DHT22;5186;59.472;18.048;2023-01-20T11:30:26;1.70;99.90
10282;DHT22;5186;59.472;18.048;2023-01-20T11:33:14;1.70;99.90
10282;DHT22;5186;59.472;18.048;2023-01-20T11:35:56;1.70;99.90
10282;DHT22;5186;59.472;18.048;2023-01-20T11:38:23;1.80;99.90
10282;DHT22;5186;59.472;18.048;2023-01-20T11:40:54;1.80;99.90
10282;DHT22;5186;59.472;18.048;2023-01-20T11:43:36;1.90;99.90
10282;DHT22;5186;59.472;18.048;2023-01-20T11:48:50;1.90;99.90
10282;DHT22;5186;59.472;18.048;2023-01-20T11:51:30;1.90;99.90
10282;DHT22;5186;59.472;18.048;2023-01-20T11:54:28;1.90;99.90
10282;DHT22;5186;59.472;18.048;2023-01-20T11:56:57;2.00;99.90
10282;DHT22;5186;59.472;18.048;2023-01-20T11:59:27;2.00;99.90
10282;DHT22;5186;59.472;18.048;2023-01-20T12:09:59;2.10;99.90
10282;DHT22;5186;59.472;18.048;2023-01-20T12:15:39;2.00;99.90
10282;DHT22;5186;59.472;18.048;2023-01-20T12:18:39;2.00;99.90
10282;DHT22;5186;59.472;18.048;2023-01-20T12:21:12;2.10;99.90
10282;DHT22;5186;59.472;18.048;2023-01-20T12:24:08;2.10;99.90
10282;DHT22;5186;59.472;18.048;2023-01-20T12:26:38;2.10;99.90
10282;DHT22;5186;59.472;18.048;2023-01-20T12:29:18;2.10;99.90
10282;DHT22;5186;59.472;18.048;2023-01-20T12:31:45;2.10;99.90
10282;DHT22;5186;59.472;18.048;2023-01-20T12:34:26;2.20;99.90
10282;DHT22;5186;59.472;18.048;2023-01-20T12:39:44;2.20;99.90
10282;DHT22;5186;59.472;18.048;2023-01-20T12:44:59;2.20;99.90
10282;DHT22;5186;59.472;18.048;2023-01-20T12:50:14;2.30;99.90
10282;DHT22;5186;59.472;18.048;2023-01-20T12:53:08;2.30;99.90
10282;DHT22;5186;59.472;18.048;2023-01-20T12:55:59;2.30;99.90
10282;DHT22;5186;59.472;18.048;2023-01-20T12:58:53;2.30;99.90
10282;DHT22;5186;59.472;18.048;2023-01-20T13:04:47;2.40;99.90
10282;DHT22;5186;59.472;18.048;2023-01-20T13:10:00;2.40;99.90
10282;DHT22;5186;59.472;18.048;2023-01-20T13:12:51;2.40;99.90
10282;DHT22;5186;59.472;18.048;2023-01-20T13:15:44;2.40;99.90
10282;DHT22;5186;59.472;18.048;2023-01-20T13:20:42;2.40;99.90
10282;DHT22;5186;59.472;18.048;2023-01-20T13:23:15;2.40;99.90
10282;DHT22;5186;59.472;18.048;2023-01-20T13:25:44;2.40;99.90
10282;DHT22;5186;59.472;18.048;2023-01-20T13:28:15;2.40;99.90
10282;DHT22;5186;59.472;18.048;2023-01-20T13:30:42;2.40;99.90
10282;DHT22;5186;59.472;18.048;2023-01-20T13:35:45;2.50;99.90
10282;DHT22;5186;59.472;18.048;2023-01-20T13:38:27;2.50;99.90
10282;DHT22;5186;59.472;18.048;2023-01-20T13:40:59;2.50;99.90
10282;DHT22;5186;59.472;18.048;2023-01-20T13:48:35;2.50;99.90
10282;DHT22;5186;59.472;18.048;2023-01-20T13:53:47;2.50;99.90
10282;DHT22;5186;59.472;18.048;2023-01-20T13:56:29;2.50;99.90
10282;DHT22;5186;59.472;18.048;2023-01-20T13:58:55;2.50;99.90
10282;DHT22;5186;59.472;18.048;2023-01-20T14:01:24;2.50;99.90
10282;DHT22;5186;59.472;18.048;2023-01-20T14:04:02;2.50;99.90
10282;DHT22;5186;59.472;18.048;2023-01-20T14:06:28;2.50;99.90
10282;DHT22;5186;59.472;18.048;2023-01-20T14:08:54;2.50;99.90
10282;DHT22;5186;59.472;18.048;2023-01-20T14:11:25;2.50;99.90
10282;DHT22;5186;59.472;18.048;2023-01-20T14:16:18;2.50;99.90
10282;DHT22;5186;59.472;18.048;2023-01-20T14:18:44;2.60;99.90
10282;DHT22;5186;59.472;18.048;2023-01-20T14:21:22;2.50;99.90
10282;DHT22;5186;59.472;18.048;2023-01-20T14:23:48;2.50;99.90
10282;DHT22;5186;59.472;18.048;2023-01-20T14:26:29;2.60;99.90
10282;DHT22;5186;59.472;18.048;2023-01-20T14:29:00;2.60;99.90
10282;DHT22;5186;59.472;18.048;2023-01-20T14:31:34;2.60;99.90
10282;DHT22;5186;59.472;18.048;2023-01-20T14:34:28;2.60;99.90
10282;DHT22;5186;59.472;18.048;2023-01-20T14:36:58;2.60;99.90
10282;DHT22;5186;59.472;18.048;2023-01-20T14:39:26;2.60;99.90
10282;DHT22;5186;59.472;18.048;2023-01-20T14:41:57;2.60;99.90
10282;DHT22;5186;59.472;18.048;2023-01-20T14:47:01;2.70;99.90
10282;DHT22;5186;59.472;18.048;2023-01-20T14:49:34;2.70;99.90
10282;DHT22;5186;59.472;18.048;2023-01-20T14:52:07;2.70;99.90
10282;DHT22;5186;59.472;18.048;2023-01-20T14:54:43;2.70;99.90
10282;DHT22;5186;59.472;18.048;2023-01-20T15:00:15;2.80;99.90
10282;DHT22;5186;59.472;18.048;2023-01-20T15:05:28;2.70;99.90
10282;DHT22;5186;59.472;18.048;2023-01-20T15:10:30;2.70;99.90
10282;DHT22;5186;59.472;18.048;2023-01-20T15:12:55;2.60;99.90
10282;DHT22;5186;59.472;18.048;2023-01-20T15:20:51;2.60;99.90
10282;DHT22;5186;59.472;18.048;2023-01-20T15:23:22;2.60;99.90
10282;DHT22;5186;59.472;18.048;2023-01-20T15:25:54;2.60;99.90
10282;DHT22;5186;59.472;18.048;2023-01-20T15:28:30;2.60;99.90
10282;DHT22;5186;59.472;18.048;2023-01-20T15:30:57;2.60;99.90
10282;DHT22;5186;59.472;18.048;2023-01-20T15:33:24;2.60;99.90
10282;DHT22;5186;59.472;18.048;2023-01-20T15:35:58;2.60;99.90
10282;DHT22;5186;59.472;18.048;2023-01-20T15:38:29;2.60;99.90
10282;DHT22;5186;59.472;18.048;2023-01-20T15:40:56;2.60;99.90
10282;DHT22;5186;59.472;18.048;2023-01-20T15:43:22;2.60;99.90
10282;DHT22;5186;59.472;18.048;2023-01-20T15:45:48;2.60;99.90
10282;DHT22;5186;59.472;18.048;2023-01-20T15:48:16;2.60;99.90
10282;DHT22;5186;59.472;18.048;2023-01-20T15:50:42;2.60;99.90
10282;DHT22;5186;59.472;18.048;2023-01-20T15:53:09;2.60;99.90
10282;DHT22;5186;59.472;18.048;2023-01-20T15:55:35;2.60;99.90
10282;DHT22;5186;59.472;18.048;2023-01-20T15:58:05;2.60;99.90
10282;DHT22;5186;59.472;18.048;2023-01-20T16:00:36;2.60;99.90
10282;DHT22;5186;59.472;18.048;2023-01-20T16:03:03;2.60;99.90
10282;DHT22;5186;59.472;18.048;2023-01-20T16:05:28;2.70;99.90
10282;DHT22;5186;59.472;18.048;2023-01-20T16:07:54;2.70;99.90
10282;DHT22;5186;59.472;18.048;2023-01-20T16:10:19;2.70;99.90
10282;DHT22;5186;59.472;18.048;2023-01-20T16:12:45;2.70;99.90
10282;DHT22;5186;59.472;18.048;2023-01-20T16:15:16;2.70;99.90
10282;DHT22;5186;59.472;18.048;2023-01-20T16:17:42;2.70;99.90
10282;DHT22;5186;59.472;18.048;2023-01-20T16:20:16;2.70;99.90
10282;DHT22;5186;59.472;18.048;2023-01-20T16:22:42;2.70;99.90
10282;DHT22;5186;59.472;18.048;2023-01-20T16:25:08;2.70;99.90
10282;DHT22;5186;59.472;18.048;2023-01-20T16:27:33;2.70;99.90
10282;DHT22;5186;59.472;18.048;2023-01-20T16:29:59;2.70;99.90
10282;DHT22;5186;59.472;18.048;2023-01-20T16:32:25;2.70;99.90
10282;DHT22;5186;59.472;18.048;2023-01-20T16:34:51;2.80;99.90
10282;DHT22;5186;59.472;18.048;2023-01-20T16:37:16;2.70;99.90
10282;DHT22;5186;59.472;18.048;2023-01-20T16:39:42;2.70;99.90
10282;DHT22;5186;59.472;18.048;2023-01-20T16:42:13;2.70;99.90
10282;DHT22;5186;59.472;18.048;2023-01-20T16:44:39;2.70;99.90
10282;DHT22;5186;59.472;18.048;2023-01-20T16:47:05;2.80;99.90
10282;DHT22;5186;59.472;18.048;2023-01-20T16:49:32;2.70;99.90
10282;DHT22;5186;59.472;18.048;2023-01-20T16:51:58;2.70;99.90
10282;DHT22;5186;59.472;18.048;2023-01-20T16:54:24;2.70;99.90
10282;DHT22;5186;59.472;18.048;2023-01-20T16:56:49;2.70;99.90
10282;DHT22;5186;59.472;18.048;2023-01-20T16:59:15;2.70;99.90
10282;DHT22;5186;59.472;18.048;2023-01-20T17:01:41;2.70;99.90
10282;DHT22;5186;59.472;18.048;2023-01-20T17:04:07;2.70;99.90
10282;DHT22;5186;59.472;18.048;2023-01-20T17:06:35;2.70;99.90
10282;DHT22;5186;59.472;18.048;2023-01-20T17:09:03;2.70;99.90
10282;DHT22;5186;59.472;18.048;2023-01-20T17:11:36;2.70;99.90
10282;DHT22;5186;59.472;18.048;2023-01-20T17:14:04;2.80;99.90
10282;DHT22;5186;59.472;18.048;2023-01-20T17:16:30;2.70;99.90
10282;DHT22;5186;59.472;18.048;2023-01-20T17:18:58;2.70;99.90
10282;DHT22;5186;59.472;18.048;2023-01-20T17:21:26;2.70;99.90
10282;DHT22;5186;59.472;18.048;2023-01-20T17:23:57;2.70;99.90
10282;DHT22;5186;59.472;18.048;2023-01-20T17:26:24;2.70;99.90
10282;DHT22;5186;59.472;18.048;2023-01-20T17:28:54;2.80;99.90
10282;DHT22;5186;59.472;18.048;2023-01-20T17:31:20;2.70;99.90
10282;DHT22;5186;59.472;18.048;2023-01-20T17:33:47;2.80;99.90
10282;DHT22;5186;59.472;18.048;2023-01-20T17:36:13;2.70;99.90